createdAt,value
2018-05-15T17:31:01.420Z,88.96
2018-05-15T17:33:33.001Z,85.52
2018-05-15T17:36:03.725Z,86.36
2018-05-15T17:38:31.562Z,86.12
2018-05-15T17:40:59.935Z,85.77
2018-05-15T17:43:28.115Z,85.80
2018-05-15T17:45:56.509Z,85.36
2018-05-15T17:48:26.418Z,85.96
2018-05-15T17:50:55.365Z,85.87
2018-05-15T17:53:27.993Z,86.58
2018-05-15T17:55:58.428Z,86.16
2018-05-15T17:58:26.959Z,85.97
2018-05-15T18:00:55.251Z,91.01
2018-05-15T18:03:23.440Z,91.39
2018-05-15T18:05:52.753Z,91.82
2018-05-15T18:08:21.156Z,90.31
2018-05-15T18:10:49.740Z,91.05
2018-05-15T18:13:18.039Z,92.70
2018-05-15T18:15:46.584Z,92.12
2018-05-15T18:18:15.571Z,92.13
2018-05-15T18:20:43.899Z,91.50
2018-05-15T18:23:12.907Z,91.91
2018-05-15T18:25:41.117Z,93.00
2018-05-15T18:28:09.449Z,93.17
2018-05-15T18:30:38.032Z,92.26
2018-05-15T18:33:08.546Z,92.23
2018-05-15T18:35:36.869Z,92.76
2018-05-15T18:38:05.433Z,93.28
2018-05-15T18:40:33.596Z,90.61
2018-05-15T18:43:01.693Z,91.87
2018-05-15T18:45:29.859Z,90.10
2018-05-15T18:48:02.636Z,88.37
2018-05-15T18:50:30.374Z,90.21
2018-05-15T18:52:59.055Z,89.40
2018-05-15T18:55:27.901Z,89.69
2018-05-15T18:57:55.796Z,88.99
2018-05-15T19:00:27.254Z,89.30
2018-05-15T19:02:58.845Z,91.81
2018-05-15T19:05:26.891Z,92.39
2018-05-15T19:07:56.820Z,90.75
2018-05-15T19:10:25.939Z,91.29
2018-05-15T19:12:54.217Z,91.62
2018-05-15T19:15:21.944Z,92.36
2018-05-15T19:17:52.719Z,93.63
2018-05-15T19:20:22.314Z,94.20
2018-05-15T19:22:50.695Z,94.37
2018-05-15T19:25:21.933Z,94.01
2018-05-15T19:27:53.806Z,94.77
2018-05-15T19:30:22.585Z,93.82
2018-05-15T19:32:56.701Z,93.71
2018-05-15T19:35:45.453Z,92.29
2018-05-15T19:38:13.814Z,92.05
2018-05-15T19:40:42.975Z,92.18
2018-05-15T19:43:10.555Z,92.28
2018-05-15T19:45:38.245Z,93.26
2018-05-15T19:48:06.109Z,93.09
2018-05-15T19:50:33.752Z,92.74
2018-05-15T19:53:01.409Z,92.90
2018-05-15T19:55:29.050Z,93.40
2018-05-15T19:57:56.601Z,93.10
2018-05-15T20:00:24.100Z,93.22
2018-05-15T20:02:51.725Z,93.78
2018-05-15T20:05:19.272Z,94.81
2018-05-15T20:07:47.665Z,95.69
2018-05-15T20:10:16.879Z,95.75
2018-05-15T20:12:44.535Z,95.93
2018-05-15T20:15:12.089Z,95.91
2018-05-15T20:17:39.627Z,95.68
2018-05-15T20:20:07.211Z,95.15
2018-05-15T20:22:34.755Z,96.10
2018-05-15T20:25:02.396Z,95.03
2018-05-15T20:27:29.975Z,96.36
2018-05-15T20:29:57.531Z,97.26
2018-05-15T20:32:25.136Z,97.95
2018-05-15T20:34:52.736Z,98.33
2018-05-15T20:37:20.250Z,98.90
2018-05-15T20:39:47.787Z,98.99
2018-05-15T20:42:15.368Z,98.38
2018-05-15T20:44:42.886Z,99.09
2018-05-15T20:47:10.653Z,99.46
2018-05-15T20:49:38.202Z,98.52
2018-05-15T20:52:05.844Z,98.49
2018-05-15T20:54:33.372Z,98.30
2018-05-15T20:57:00.971Z,97.97
2018-05-15T20:59:28.563Z,98.18
2018-05-15T21:01:56.262Z,97.95
2018-05-15T21:04:23.778Z,96.97
2018-05-15T21:06:51.410Z,98.10
2018-05-15T21:09:19.068Z,97.50
2018-05-15T21:11:46.643Z,97.67
2018-05-15T21:14:14.300Z,96.22
2018-05-15T21:16:41.946Z,96.75
2018-05-15T21:19:09.510Z,98.16
2018-05-15T21:21:37.053Z,98.47
2018-05-15T21:24:04.612Z,98.85
2018-05-15T21:26:32.200Z,99.28
2018-05-15T21:28:59.799Z,100.00
2018-05-15T21:31:27.425Z,99.78
2018-05-15T21:33:54.964Z,100.00
2018-05-15T21:36:22.555Z,100.00
2018-05-15T21:38:50.131Z,100.00
2018-05-15T21:41:17.831Z,100.00
2018-05-15T21:43:45.418Z,100.00
2018-05-15T21:46:13.202Z,100.00
2018-05-15T21:48:40.816Z,100.00
2018-05-15T21:51:08.339Z,100.00
2018-05-15T21:53:35.958Z,100.00
2018-05-15T21:56:03.528Z,100.00
2018-05-15T21:58:31.026Z,100.00
2018-05-15T22:00:58.722Z,100.00
2018-05-15T22:03:26.332Z,100.00
2018-05-15T22:05:53.936Z,100.00
2018-05-15T22:08:21.444Z,100.00
2018-05-15T22:10:49.095Z,100.00
2018-05-15T22:13:28.516Z,100.00
2018-05-15T22:16:07.887Z,100.00
2018-05-15T22:18:47.319Z,100.00
2018-05-15T22:21:26.723Z,100.00
2018-05-15T22:23:54.573Z,100.00
2018-05-15T22:26:22.246Z,100.00
2018-05-15T22:28:49.794Z,100.00
2018-05-15T22:31:17.408Z,100.00
2018-05-15T22:33:44.932Z,100.00
2018-05-15T22:36:12.569Z,100.00
2018-05-15T22:38:40.187Z,100.00
2018-05-15T22:41:07.804Z,100.00
2018-05-15T22:43:35.330Z,100.00
2018-05-15T22:46:02.900Z,100.00
2018-05-15T22:48:30.399Z,100.00
2018-05-15T22:50:57.928Z,100.00
2018-05-15T22:53:25.477Z,100.00
2018-05-15T22:55:53.051Z,100.00
2018-05-15T22:58:20.595Z,100.00
2018-05-15T23:00:48.102Z,100.00
2018-05-15T23:03:15.808Z,100.00
2018-05-15T23:05:43.360Z,100.00
2018-05-15T23:08:10.871Z,100.00
2018-05-15T23:10:38.462Z,100.00
2018-05-15T23:13:05.975Z,100.00
2018-05-15T23:15:33.529Z,100.00
2018-05-15T23:18:01.074Z,100.00
2018-05-15T23:20:28.637Z,100.00
2018-05-15T23:22:56.134Z,100.00
2018-05-15T23:25:23.659Z,100.00
2018-05-15T23:27:51.201Z,100.00
2018-05-15T23:30:18.741Z,100.00
2018-05-15T23:32:46.318Z,100.00
2018-05-15T23:35:13.841Z,100.00
2018-05-15T23:37:41.350Z,100.00
2018-05-15T23:40:08.880Z,100.00
2018-05-15T23:42:36.432Z,100.00
2018-05-15T23:45:03.945Z,100.00
2018-05-15T23:47:31.448Z,100.00
2018-05-15T23:49:59.011Z,100.00
2018-05-15T23:52:26.544Z,100.00
2018-05-15T23:54:54.036Z,100.00
2018-05-15T23:57:21.585Z,100.00
2018-05-15T23:59:49.115Z,100.00
